createdAt,value
2018-07-20T00:00:39.106Z,23.16
2018-07-20T00:01:49.184Z,23.09
2018-07-20T00:02:59.248Z,23.15
2018-07-20T00:04:08.820Z,23.1
2018-07-20T00:05:18.624Z,23.07
2018-07-20T00:06:28.694Z,23.06
2018-07-20T00:07:38.495Z,23.12
2018-07-20T00:08:48.591Z,23
2018-07-20T00:09:58.715Z,23.09
2018-07-20T00:11:08.779Z,23.07
2018-07-20T00:12:18.593Z,23.04
2018-07-20T00:13:28.663Z,22.99
2018-07-20T00:14:38.735Z,22.96
2018-07-20T00:15:48.834Z,22.92
2018-07-20T00:16:58.921Z,23
2018-07-20T00:18:09.004Z,22.91
2018-07-20T00:19:19.082Z,22.86
2018-07-20T00:20:28.889Z,22.91
2018-07-20T00:21:38.977Z,22.89
2018-07-20T00:22:48.533Z,22.76
2018-07-20T00:23:58.349Z,22.88
2018-07-20T00:25:08.178Z,22.75
2018-07-20T00:26:18.264Z,22.75
2018-07-20T00:27:28.352Z,22.73
2018-07-20T00:28:38.425Z,22.78
2018-07-20T00:29:48.493Z,22.81
2018-07-20T00:30:58.581Z,22.69
2018-07-20T00:32:08.636Z,22.71
2018-07-20T00:33:18.457Z,22.75
2018-07-20T00:34:28.264Z,22.69
2018-07-20T00:35:38.328Z,22.75
2018-07-20T00:36:48.406Z,22.75
2018-07-20T00:37:58.476Z,22.64
2018-07-20T00:39:08.086Z,22.73
2018-07-20T00:40:17.916Z,22.7
2018-07-20T00:41:28.009Z,22.67
2018-07-20T00:42:38.069Z,22.69
2018-07-20T00:43:48.158Z,22.67
2018-07-20T00:44:58.232Z,22.63
2018-07-20T00:46:08.316Z,22.63
2018-07-20T00:47:18.399Z,22.63
2018-07-20T00:48:28.467Z,22.61
2018-07-20T00:49:38.546Z,22.64
2018-07-20T00:50:48.378Z,22.6
2018-07-20T00:51:58.449Z,22.49
2018-07-20T00:53:08.264Z,22.51
2018-07-20T00:54:18.325Z,22.49
2018-07-20T00:55:28.409Z,22.57
2018-07-20T00:56:38.008Z,22.44
2018-07-20T00:57:48.218Z,22.46
2018-07-20T00:58:58.377Z,22.39
2018-07-20T01:00:08.444Z,22.41
2018-07-20T01:01:18.529Z,22.44
2018-07-20T01:02:28.613Z,22.45
2018-07-20T01:03:38.687Z,22.46
2018-07-20T01:04:48.784Z,22.48
2018-07-20T01:05:58.338Z,22.42
2018-07-20T01:07:08.420Z,22.42
2018-07-20T01:08:18.235Z,22.48
2018-07-20T01:09:28.311Z,22.3
2018-07-20T01:10:38.407Z,22.38
2018-07-20T01:11:48.481Z,22.38
2018-07-20T01:12:58.546Z,22.38
2018-07-20T01:14:08.670Z,22.33
2018-07-20T01:15:18.497Z,22.38
2018-07-20T01:16:28.317Z,22.34
2018-07-20T01:17:38.125Z,22.38
2018-07-20T01:18:48.209Z,22.29
2018-07-20T01:19:58.377Z,22.23
2018-07-20T01:21:08.440Z,22.23
2018-07-20T01:22:18.505Z,22.3
2018-07-20T01:23:28.577Z,22.27
2018-07-20T01:24:38.656Z,22.23
2018-07-20T01:25:48.537Z,22.23
2018-07-20T01:26:58.345Z,22.2
2018-07-20T01:28:08.439Z,22.22
2018-07-20T01:29:18.499Z,22.18
2018-07-20T01:30:28.576Z,22.2
2018-07-20T01:31:38.708Z,22.18
2018-07-20T01:32:48.755Z,22.18
2018-07-20T01:33:58.820Z,22.2
2018-07-20T01:35:08.912Z,22.09
2018-07-20T01:36:18.996Z,22.09
2018-07-20T01:37:29.067Z,22.08
2018-07-20T01:38:39.186Z,22.14
2018-07-20T01:39:49.317Z,22.14
2018-07-20T01:40:59.390Z,21.94
2018-07-20T01:42:09.461Z,22.07
2018-07-20T01:43:19.317Z,21.99
2018-07-20T01:44:29.394Z,22.05
2018-07-20T01:45:39.453Z,22.04
2018-07-20T01:46:49.513Z,21.94
2018-07-20T01:47:59.578Z,21.93
2018-07-20T01:49:09.649Z,22
2018-07-20T01:50:19.720Z,21.93
2018-07-20T01:51:29.519Z,21.94
2018-07-20T01:52:39.329Z,21.94
2018-07-20T01:53:49.142Z,21.99
2018-07-20T01:54:59.042Z,21.94
2018-07-20T01:56:09.118Z,21.97
2018-07-20T01:57:18.936Z,21.9
2018-07-20T01:58:29.002Z,21.96
2018-07-20T01:59:38.815Z,21.86
2018-07-20T02:00:48.623Z,21.83
2018-07-20T02:01:58.701Z,21.86
2018-07-20T02:03:08.779Z,21.8
2018-07-20T02:04:18.853Z,21.85
2018-07-20T02:05:28.937Z,21.85
2018-07-20T02:06:39.011Z,21.78
2018-07-20T02:07:48.818Z,21.89
2018-07-20T02:08:58.885Z,21.77
2018-07-20T02:10:08.960Z,21.76
2018-07-20T02:11:18.514Z,21.78
2018-07-20T02:12:28.585Z,21.7
2018-07-20T02:13:38.655Z,21.7
2018-07-20T02:14:48.741Z,21.74
2018-07-20T02:15:58.820Z,21.62
2018-07-20T02:17:08.648Z,21.62
2018-07-20T02:18:18.698Z,21.61
2018-07-20T02:19:28.773Z,21.64
2018-07-20T02:20:38.827Z,21.52
2018-07-20T02:21:48.907Z,21.61
2018-07-20T02:22:58.990Z,21.59
2018-07-20T02:24:08.796Z,21.52
2018-07-20T02:25:18.624Z,21.61
2018-07-20T02:26:28.704Z,21.53
2018-07-20T02:27:38.776Z,21.59
2018-07-20T02:28:48.845Z,21.53
2018-07-20T02:29:58.941Z,21.53
2018-07-20T02:31:09.011Z,21.56
2018-07-20T02:32:18.812Z,21.52
2018-07-20T02:33:28.929Z,21.52
2018-07-20T02:34:39.002Z,21.51
2018-07-20T02:35:48.820Z,21.49
2018-07-20T02:36:58.655Z,21.46
2018-07-20T02:38:08.484Z,21.53
2018-07-20T02:39:18.560Z,21.43
2018-07-20T02:40:28.649Z,21.45
2018-07-20T02:41:38.474Z,21.49
2018-07-20T02:42:48.589Z,21.43
2018-07-20T02:43:58.397Z,21.4
2018-07-20T02:45:08.222Z,21.37
2018-07-20T02:46:18.301Z,21.48
2018-07-20T02:47:28.384Z,21.36
2018-07-20T02:48:38.468Z,21.4
2018-07-20T02:49:48.290Z,21.38
2018-07-20T02:50:58.359Z,21.33
2018-07-20T02:52:08.168Z,21.34
2018-07-20T02:53:18.239Z,21.3
2018-07-20T02:54:28.328Z,21.37
2018-07-20T02:55:38.398Z,21.28
2018-07-20T02:56:48.484Z,21.33
2018-07-20T02:57:58.589Z,21.34
2018-07-20T02:59:08.668Z,21.34
2018-07-20T03:00:18.747Z,21.22
2018-07-20T03:01:28.813Z,21.21
2018-07-20T03:02:38.634Z,21.3
2018-07-20T03:35:05.647Z,19.78
2018-07-20T03:36:15.455Z,19.79
2018-07-20T03:37:25.540Z,19.74
2018-07-20T03:38:35.627Z,19.85
2018-07-20T03:39:45.699Z,19.95
2018-07-20T03:40:55.784Z,20.04
2018-07-20T03:42:05.841Z,20.11
2018-07-20T03:43:15.667Z,20.08
2018-07-20T03:44:25.741Z,20.26
2018-07-20T03:45:35.564Z,20.26
2018-07-20T03:46:45.683Z,20.46
2018-07-20T03:47:55.762Z,20.48
2018-07-20T03:49:06.179Z,20.57
2018-07-20T03:50:16.333Z,20.63
2018-07-20T03:51:26.407Z,20.86
2018-07-20T03:52:36.473Z,20.79
2018-07-20T03:53:46.563Z,20.98
2018-07-20T03:54:56.634Z,21.09
2018-07-20T03:56:06.716Z,21.12
2018-07-20T03:57:16.792Z,21.23
2018-07-20T03:58:26.877Z,21.19
2018-07-20T03:59:36.683Z,21.34
2018-07-20T04:00:46.486Z,21.37
2018-07-20T04:01:56.552Z,21.43
2018-07-20T04:03:06.629Z,21.48
2018-07-20T04:04:16.722Z,21.53
2018-07-20T04:05:26.806Z,21.59
2018-07-20T04:06:36.888Z,21.68
2018-07-20T04:07:46.710Z,21.61
2018-07-20T04:08:56.780Z,21.71
2018-07-20T04:10:06.915Z,21.76
2018-07-20T04:11:17.130Z,21.74
2018-07-20T04:12:26.997Z,21.83
2018-07-20T04:13:37.088Z,21.82
2018-07-20T04:14:47.156Z,21.82
2018-07-20T04:15:57.018Z,21.94
2018-07-20T04:17:06.842Z,21.94
2018-07-20T04:18:16.669Z,21.99
2018-07-20T04:19:26.755Z,22.12
2018-07-20T04:20:36.844Z,22.12
2018-07-20T04:21:47.964Z,22.16
2018-07-20T04:22:58.048Z,22.18
2018-07-20T04:24:08.116Z,22.26
2018-07-20T04:25:18.182Z,22.24
2018-07-20T04:26:28.007Z,22.26
2018-07-20T04:27:38.079Z,22.41
2018-07-20T04:28:48.160Z,22.94
2018-07-20T04:29:58.227Z,24.52
2018-07-20T04:31:08.046Z,26.42
2018-07-20T04:32:18.132Z,27.83
2018-07-20T04:33:27.950Z,28.82
2018-07-20T04:34:38.019Z,29.69
2018-07-20T04:35:48.089Z,30.45
2018-07-20T04:36:58.154Z,31.13
2018-07-20T04:38:08.234Z,31.59
2018-07-20T04:39:18.061Z,31.98
2018-07-20T04:40:27.864Z,32.37
2018-07-20T04:41:37.945Z,32.76
2018-07-20T04:42:47.767Z,33.09
2018-07-20T04:43:58.021Z,33.37
2018-07-20T04:45:08.221Z,33.65
2018-07-20T04:46:18.302Z,33.87
2018-07-20T04:47:28.395Z,33.97
2018-07-20T04:48:38.234Z,33.84
2018-07-20T04:49:48.327Z,33.39
2018-07-20T04:50:58.482Z,33.17
2018-07-20T04:52:08.559Z,33.48
2018-07-20T04:53:18.642Z,33.74
2018-07-20T04:54:28.723Z,34.05
2018-07-20T04:55:38.802Z,34.29
2018-07-20T04:56:48.859Z,34.48
2018-07-20T04:57:58.929Z,34.75
2018-07-20T04:59:08.731Z,34.94
2018-07-20T05:00:18.533Z,35.06
2018-07-20T05:01:28.609Z,35.26
2018-07-20T05:02:38.730Z,35.34
2018-07-20T05:03:49.255Z,35.33
2018-07-20T05:04:59.373Z,35.28
2018-07-20T05:06:09.205Z,35.35
2018-07-20T05:07:19.293Z,35.35
2018-07-20T05:08:29.478Z,35.45
2018-07-20T05:09:39.561Z,35.55
2018-07-20T05:10:49.376Z,35.6
2018-07-20T05:11:59.468Z,35.67
2018-07-20T05:13:09.546Z,35.65
2018-07-20T05:14:19.410Z,35.61
2018-07-20T05:15:29.219Z,35.61
2018-07-20T05:16:39.037Z,35.6
2018-07-20T05:17:49.116Z,35.62
2018-07-20T05:18:59.201Z,35.67
2018-07-20T05:20:09.037Z,35.57
2018-07-20T05:21:19.116Z,35.57
2018-07-20T05:22:29.207Z,35.55
2018-07-20T05:23:39.295Z,35.61
2018-07-20T05:24:49.379Z,35.57
2018-07-20T05:25:59.458Z,35.53
2018-07-20T05:27:09.545Z,35.49
2018-07-20T05:28:19.615Z,35.4
2018-07-20T05:29:29.690Z,35.47
2018-07-20T05:30:39.797Z,35.4
2018-07-20T05:31:50.892Z,35.43
2018-07-20T05:33:00.970Z,35.43
2018-07-20T05:34:11.059Z,35.43
2018-07-20T05:35:20.890Z,35.35
2018-07-20T05:36:30.447Z,35.34
2018-07-20T05:37:40.571Z,35.26
2018-07-20T05:38:50.664Z,35.33
2018-07-20T05:40:00.486Z,35.28
2018-07-20T05:41:10.596Z,35.26
2018-07-20T05:42:20.685Z,35.23
2018-07-20T05:43:29.977Z,35.16
2018-07-20T05:44:40.104Z,35.05
2018-07-20T05:45:49.911Z,35.05
2018-07-20T05:47:00.008Z,35.02
2018-07-20T05:48:10.104Z,35.12
2018-07-20T05:49:19.979Z,35.06
2018-07-20T05:50:29.518Z,34.97
2018-07-20T05:51:39.594Z,34.93
2018-07-20T05:52:49.665Z,34.97
2018-07-20T05:53:59.492Z,34.84
2018-07-20T05:55:09.309Z,34.75
2018-07-20T05:56:19.120Z,34.69
2018-07-20T05:57:28.959Z,34.59
2018-07-20T05:58:39.035Z,34.71
2018-07-20T05:59:48.844Z,34.59
2018-07-20T06:00:58.913Z,34.59
2018-07-20T06:02:08.989Z,34.49
2018-07-20T06:03:19.056Z,34.46
2018-07-20T06:04:29.166Z,34.34
2018-07-20T06:05:39.214Z,34.21
2018-07-20T06:06:49.535Z,34.12
2018-07-20T06:07:59.701Z,33.93
2018-07-20T06:09:09.796Z,33.69
2018-07-20T06:10:19.685Z,33.55
2018-07-20T06:11:29.507Z,33.36
2018-07-20T06:12:39.392Z,33.18
2018-07-20T06:13:49.265Z,33.13
2018-07-20T06:14:59.368Z,33.2
2018-07-20T06:16:09.459Z,33.11
2018-07-20T06:17:19.587Z,33.03
2018-07-20T06:18:29.791Z,32.79
2018-07-20T06:19:39.621Z,32.37
2018-07-20T06:20:49.434Z,31.65
2018-07-20T06:21:59.615Z,30.71
2018-07-20T06:23:09.687Z,30.07
2018-07-20T06:24:19.792Z,29.65
2018-07-20T06:25:29.872Z,29.43
2018-07-20T06:26:39.685Z,29.11
2018-07-20T06:27:49.792Z,29.13
2018-07-20T06:28:59.892Z,28.9
2018-07-20T06:30:10.016Z,28.75
2018-07-20T06:31:20.087Z,28.57
2018-07-20T06:32:29.906Z,28.53
2018-07-20T06:33:39.986Z,28.72
2018-07-20T06:34:50.073Z,29.08
2018-07-20T06:36:00.192Z,29.45
2018-07-20T06:37:10.276Z,29.4
2018-07-20T06:38:20.363Z,29.6
2018-07-20T06:39:29.918Z,29.65
2018-07-20T06:40:40.125Z,29.73
2018-07-20T06:41:50.391Z,29.77
2018-07-20T06:43:00.468Z,29.76
2018-07-20T06:44:10.538Z,29.76
2018-07-20T06:45:20.607Z,29.82
2018-07-20T06:46:30.159Z,29.79
2018-07-20T06:47:40.250Z,29.67
2018-07-20T06:48:50.081Z,29.6
2018-07-20T06:49:59.971Z,29.67
2018-07-20T06:51:10.052Z,29.54
2018-07-20T06:52:20.147Z,29.51
2018-07-20T06:53:30.279Z,29.5
2018-07-20T06:54:40.094Z,29.4
2018-07-20T06:55:50.262Z,29.45
2018-07-20T06:56:59.919Z,29.32
2018-07-20T06:58:09.743Z,29.11
2018-07-20T06:59:19.833Z,29.1
2018-07-20T07:00:29.915Z,28.94
2018-07-20T07:01:39.980Z,28.86
2018-07-20T07:02:50.074Z,28.86
2018-07-20T07:04:00.165Z,28.78
2018-07-20T07:05:10.253Z,28.67
2018-07-20T07:06:20.325Z,28.65
2018-07-20T07:07:30.130Z,28.57
2018-07-20T07:08:39.935Z,28.46
2018-07-20T07:09:50.060Z,28.45
2018-07-20T07:11:00.137Z,28.3
2018-07-20T07:12:10.244Z,28.27
2018-07-20T07:13:20.061Z,28.18
2018-07-20T07:14:29.862Z,28.23
2018-07-20T07:15:39.940Z,28.17
2018-07-20T07:16:50.081Z,28.06
2018-07-20T07:18:00.141Z,27.99
2018-07-20T07:19:10.192Z,27.87
2018-07-20T07:20:20.002Z,27.89
2018-07-20T07:21:30.072Z,27.86
2018-07-20T07:22:40.166Z,27.86
2018-07-20T07:23:50.409Z,27.91
2018-07-20T07:25:00.501Z,27.89
2018-07-20T07:26:10.577Z,27.9
2018-07-20T07:27:20.658Z,27.87
2018-07-20T07:28:31.008Z,27.87
2018-07-20T07:29:41.090Z,27.86
2018-07-20T07:30:51.182Z,27.89
2018-07-20T07:32:01.401Z,27.98
2018-07-20T07:33:11.523Z,27.87
2018-07-20T07:34:21.390Z,27.93
2018-07-20T07:35:31.460Z,27.99
2018-07-20T07:36:41.264Z,28.01
2018-07-20T07:37:51.351Z,27.98
2018-07-20T07:39:01.446Z,27.99
2018-07-20T07:40:11.595Z,28.02
2018-07-20T07:41:21.673Z,28.09
2018-07-20T07:42:31.498Z,28.12
2018-07-20T07:43:41.579Z,28.23
2018-07-20T07:44:51.656Z,28.23
2018-07-20T07:46:01.765Z,28.26
2018-07-20T07:47:11.839Z,28.3
2018-07-20T07:48:21.899Z,28.45
2018-07-20T07:49:31.717Z,28.55
2018-07-20T07:50:41.785Z,28.63
2018-07-20T07:51:51.899Z,28.82
2018-07-20T07:53:01.961Z,28.83
2018-07-20T07:54:11.763Z,28.85
2018-07-20T07:55:21.576Z,28.94
2018-07-20T07:56:31.654Z,28.83
2018-07-20T07:57:41.730Z,28.91
2018-07-20T07:58:51.545Z,28.86
2018-07-20T08:00:01.626Z,28.95
2018-07-20T08:01:11.713Z,29.03
2018-07-20T08:02:21.546Z,29.33
2018-07-20T08:03:31.559Z,29.32
2018-07-20T08:04:41.944Z,29.5
2018-07-20T08:05:52.027Z,29.54
2018-07-20T08:07:02.123Z,29.7
2018-07-20T08:08:11.920Z,29.89
2018-07-20T08:09:22.002Z,29.91
2018-07-20T08:10:31.979Z,29.94
2018-07-20T08:11:41.799Z,29.92
2018-07-20T08:12:51.874Z,29.79
2018-07-20T08:14:01.690Z,29.92
2018-07-20T08:15:11.554Z,30.06
2018-07-20T08:16:21.396Z,30.06
2018-07-20T08:17:31.487Z,30.16
2018-07-20T08:18:41.553Z,30.4
2018-07-20T08:19:51.646Z,30.57
2018-07-20T08:21:01.710Z,30.6
2018-07-20T08:22:11.532Z,30.63
2018-07-20T08:23:21.603Z,30.75
2018-07-20T08:24:31.682Z,30.99
2018-07-20T08:25:41.746Z,31.15
2018-07-20T08:26:51.918Z,31.26
2018-07-20T08:28:01.737Z,31.59
2018-07-20T08:29:11.820Z,31.67
2018-07-20T08:30:21.633Z,31.78
2018-07-20T08:31:31.724Z,32.17
2018-07-20T08:32:41.845Z,32.49
2018-07-20T08:33:51.934Z,32.74
2018-07-20T08:35:02.016Z,32.87
2018-07-20T08:36:12.093Z,32.71
2018-07-20T08:37:22.178Z,32.69
2018-07-20T08:38:31.522Z,32.61
2018-07-20T08:39:41.602Z,32.42
2018-07-20T08:40:51.713Z,32.5
2018-07-20T08:42:01.775Z,32.52
2018-07-20T08:43:11.591Z,32.46
2018-07-20T08:44:21.734Z,32.5
2018-07-20T08:45:31.549Z,32.74
2018-07-20T08:46:41.595Z,32.93
2018-07-20T08:47:51.709Z,32.93
2018-07-20T08:49:01.809Z,32.96
2018-07-20T08:50:11.914Z,32.94
2018-07-20T08:51:21.744Z,33.06
2018-07-20T08:52:31.555Z,33.21
2018-07-20T08:53:41.629Z,33.56
2018-07-20T08:54:51.207Z,33.47
2018-07-20T08:56:01.350Z,33.26
2018-07-20T08:57:11.142Z,33.2
2018-07-20T08:58:20.980Z,33.46
2018-07-20T08:59:31.052Z,33.59
2018-07-20T09:00:41.134Z,33.58
2018-07-20T09:01:51.219Z,33.61
2018-07-20T09:03:01.333Z,33.61
2018-07-20T09:04:11.423Z,33.63
2018-07-20T09:05:21.525Z,33.68
2018-07-20T09:06:31.613Z,33.5
2018-07-20T09:07:41.698Z,33.32
2018-07-20T09:08:51.516Z,33.29
2018-07-20T09:10:01.578Z,33.12
2018-07-20T09:11:11.723Z,33.26
2018-07-20T09:12:21.866Z,33.31
2018-07-20T09:13:32.264Z,33.26
2018-07-20T09:14:42.169Z,33.23
2018-07-20T09:15:52.000Z,33.26
2018-07-20T09:17:02.095Z,33.29
2018-07-20T09:18:12.173Z,33.16
2018-07-20T09:19:22.272Z,33.21
2018-07-20T09:20:32.105Z,33.03
2018-07-20T09:21:42.349Z,33.08
2018-07-20T09:22:52.195Z,33.21
2018-07-20T09:24:02.284Z,33.34
2018-07-20T09:25:12.415Z,33.56
2018-07-20T09:26:22.246Z,33.63
2018-07-20T09:27:32.324Z,33.77
2018-07-20T09:28:42.153Z,33.81
2018-07-20T09:29:52.233Z,33.62
2018-07-20T09:31:02.301Z,33.41
2018-07-20T09:32:12.394Z,33.31
2018-07-20T09:33:22.227Z,33.29
2018-07-20T09:34:32.293Z,33.09
2018-07-20T09:35:42.446Z,32.69
2018-07-20T09:36:52.534Z,32.47
2018-07-20T09:38:02.610Z,32.83
2018-07-20T09:39:12.697Z,33.06
2018-07-20T09:40:22.765Z,32.99
2018-07-20T09:41:32.576Z,32.67
2018-07-20T09:42:42.701Z,32.75
2018-07-20T09:43:52.583Z,32.83
2018-07-20T09:45:02.654Z,32.99
2018-07-20T09:46:12.475Z,33.18
2018-07-20T09:47:22.600Z,33.18
2018-07-20T09:48:32.682Z,33.58
2018-07-20T09:49:42.487Z,33.96
2018-07-20T09:50:52.577Z,34.05
2018-07-20T09:52:02.413Z,34.11
2018-07-20T09:53:12.248Z,34.11
2018-07-20T09:54:22.354Z,34.1
2018-07-20T09:55:32.465Z,34.02
2018-07-20T09:56:42.557Z,33.75
2018-07-20T09:57:52.632Z,33.52
2018-07-20T09:59:02.720Z,33.31
2018-07-20T10:00:12.832Z,32.96
2018-07-20T10:01:22.969Z,32.81
2018-07-20T10:02:33.073Z,32.68
2018-07-20T10:03:42.901Z,32.86
2018-07-20T10:04:52.792Z,33.06
2018-07-20T10:06:02.709Z,33.26
2018-07-20T10:07:12.518Z,33.41
2018-07-20T10:08:22.592Z,33.62
2018-07-20T10:09:32.686Z,33.74
2018-07-20T10:10:42.799Z,33.83
2018-07-20T10:11:52.892Z,33.61
2018-07-20T10:13:02.972Z,33.37
2018-07-20T10:14:13.069Z,33.24
2018-07-20T10:15:23.150Z,33.5
2018-07-20T10:16:32.952Z,33.69
2018-07-20T10:17:43.063Z,34
2018-07-20T10:18:53.142Z,34.3
2018-07-20T10:20:02.705Z,34.55
2018-07-20T10:21:12.534Z,34.45
2018-07-20T10:22:22.634Z,34.67
2018-07-20T10:23:32.727Z,34.84
2018-07-20T10:24:42.812Z,34.32
2018-07-20T10:25:52.932Z,33.92
2018-07-20T10:27:03.027Z,33.58
2018-07-20T10:28:12.817Z,33.43
2018-07-20T10:29:22.902Z,33.26
2018-07-20T10:30:33.034Z,33.55
2018-07-20T10:31:43.337Z,33.73
2018-07-20T10:32:53.402Z,33.83
2018-07-20T10:34:03.472Z,34.06
2018-07-20T10:35:13.304Z,34.1
2018-07-20T10:36:23.493Z,34.15
2018-07-20T10:37:33.338Z,34.26
2018-07-20T10:38:43.159Z,34.4
2018-07-20T10:39:53.233Z,34.39
2018-07-20T10:41:03.061Z,34.67
2018-07-20T10:42:13.209Z,34.97
2018-07-20T10:43:23.290Z,35.26
2018-07-20T10:44:33.379Z,35.46
2018-07-20T10:45:43.601Z,35.27
2018-07-20T10:46:53.833Z,34.99
2018-07-20T10:48:04.215Z,34.72
2018-07-20T10:49:14.311Z,34.37
2018-07-20T10:50:24.403Z,34.14
2018-07-20T10:51:34.068Z,33.97
2018-07-20T10:52:43.876Z,33.77
2018-07-20T10:53:54.160Z,33.65
2018-07-20T10:55:04.254Z,33.74
2018-07-20T10:56:14.429Z,33.97
2018-07-20T10:57:24.261Z,34.18
2018-07-20T10:58:33.823Z,34.36
2018-07-20T10:59:43.976Z,34.39
2018-07-20T11:00:54.060Z,34.37
2018-07-20T11:02:03.870Z,34.22
2018-07-20T11:03:13.939Z,34.43
2018-07-20T11:04:23.776Z,34.71
2018-07-20T11:05:33.900Z,34.84
2018-07-20T11:06:43.991Z,34.9
2018-07-20T11:07:54.138Z,35.08
2018-07-20T11:09:04.302Z,35.15
2018-07-20T11:10:14.381Z,35.21
2018-07-20T11:11:24.461Z,35.33
2018-07-20T11:12:34.528Z,35.38
2018-07-20T11:13:44.769Z,35.35
2018-07-20T11:14:55.052Z,35.61
2018-07-20T11:16:05.143Z,35.72
2018-07-20T11:17:15.231Z,35.99
2018-07-20T11:18:25.297Z,36.05
2018-07-20T11:19:35.372Z,36.19
2018-07-20T11:20:45.460Z,36.28
2018-07-20T11:21:55.295Z,36.3
2018-07-20T11:23:05.377Z,36.47
2018-07-20T11:24:15.479Z,36.37
2018-07-20T11:25:25.566Z,36.34
2018-07-20T11:26:35.675Z,36.33
2018-07-20T11:27:45.762Z,36.36
2018-07-20T11:28:55.841Z,36.33
2018-07-20T11:30:05.939Z,36.28
2018-07-20T11:31:16.060Z,36.44
2018-07-20T11:32:25.876Z,35.92
2018-07-20T11:33:35.959Z,35.96
2018-07-20T11:34:46.168Z,35.8
2018-07-20T11:35:56.053Z,35.71
2018-07-20T11:37:06.158Z,35.62
2018-07-20T11:38:15.741Z,35.71
2018-07-20T11:39:25.826Z,35.39
2018-07-20T11:40:35.986Z,35.12
2018-07-20T11:41:45.827Z,34.9
2018-07-20T11:42:55.995Z,34.79
2018-07-20T11:44:06.091Z,34.81
2018-07-20T11:45:16.191Z,35.11
2018-07-20T11:46:26.334Z,35.47
2018-07-20T11:47:36.422Z,35.67
2018-07-20T11:48:46.497Z,35.95
2018-07-20T11:49:56.588Z,36.14
2018-07-20T11:51:06.427Z,36.08
2018-07-20T11:52:16.005Z,35.61
2018-07-20T11:53:26.089Z,35.58
2018-07-20T11:54:36.193Z,35.65
2018-07-20T11:55:46.273Z,35.72
2018-07-20T11:56:56.166Z,35.5
2018-07-20T11:58:06.291Z,35.2
2018-07-20T11:59:16.385Z,34.9
2018-07-20T12:00:26.460Z,34.74
2018-07-20T12:01:36.571Z,34.99
2018-07-20T12:02:46.400Z,34.99
2018-07-20T12:03:56.545Z,34.78
2018-07-20T12:05:06.633Z,34.74
2018-07-20T12:06:16.457Z,34.69
2018-07-20T12:07:26.550Z,34.69
2018-07-20T12:08:36.659Z,34.63
2018-07-20T12:09:46.524Z,34.69
2018-07-20T12:10:56.595Z,34.71
2018-07-20T12:12:06.685Z,34.72
2018-07-20T12:13:16.537Z,34.69
2018-07-20T12:14:26.625Z,34.71
2018-07-20T12:15:36.738Z,34.51
2018-07-20T12:16:46.819Z,34.52
2018-07-20T12:17:56.915Z,34.48
2018-07-20T12:19:07.070Z,34.43
2018-07-20T12:20:16.893Z,34.37
2018-07-20T12:21:27.000Z,34.29
2018-07-20T12:22:37.092Z,34.27
2018-07-20T12:23:47.180Z,34.08
2018-07-20T12:24:57.270Z,34.05
2018-07-20T12:26:07.383Z,34.02
2018-07-20T12:27:17.216Z,34.43
2018-07-20T12:28:27.291Z,34.56
2018-07-20T12:29:37.393Z,34.78
2018-07-20T12:30:47.269Z,34.81
2018-07-20T12:31:57.363Z,35.04
2018-07-20T12:33:07.462Z,34.86
2018-07-20T12:34:17.529Z,34.48
2018-07-20T12:35:27.600Z,34.29
2018-07-20T12:36:37.417Z,34.12
2018-07-20T12:37:47.535Z,34.03
2018-07-20T12:38:57.377Z,33.92
2018-07-20T12:40:07.447Z,33.9
2018-07-20T12:41:17.652Z,33.71
2018-07-20T12:42:27.494Z,33.74
2018-07-20T12:43:37.654Z,33.84
2018-07-20T12:44:47.730Z,33.92
2018-07-20T12:45:57.801Z,34.08
2018-07-20T12:47:07.900Z,34.08
2018-07-20T12:48:17.734Z,34.27
2018-07-20T12:49:27.871Z,34.78
2018-07-20T12:50:38.013Z,35.26
2018-07-20T12:51:48.101Z,35.38
2018-07-20T12:52:58.206Z,35.62
2018-07-20T12:54:08.261Z,35.8
2018-07-20T12:55:18.401Z,35.96
2018-07-20T12:56:28.487Z,36.14
2018-07-20T12:57:38.584Z,36.33
2018-07-20T12:58:49.032Z,36.34
2018-07-20T12:59:59.278Z,36.25
2018-07-20T13:01:09.436Z,36.04
2018-07-20T13:02:19.553Z,35.61
2018-07-20T13:03:29.384Z,35.33
2018-07-20T13:04:39.486Z,35.15
2018-07-20T13:05:49.291Z,34.79
2018-07-20T13:06:59.156Z,34.61
2018-07-20T13:08:09.283Z,34.4
2018-07-20T13:09:19.380Z,34.27
2018-07-20T13:10:29.466Z,34.08
2018-07-20T13:11:39.552Z,34.06
2018-07-20T13:12:49.715Z,34.19
2018-07-20T13:13:59.801Z,34.41
2018-07-20T13:15:09.896Z,34.24
2018-07-20T13:16:19.732Z,34.11
2018-07-20T13:17:29.837Z,33.92
2018-07-20T13:18:39.975Z,33.71
2018-07-20T13:19:50.060Z,33.58
2018-07-20T13:21:00.148Z,33.47
2018-07-20T13:22:10.241Z,33.34
2018-07-20T13:23:20.064Z,33.4
2018-07-20T13:24:30.211Z,33.55
2018-07-20T13:25:40.337Z,33.58
2018-07-20T13:26:50.422Z,33.47
2018-07-20T13:28:00.536Z,33.55
2018-07-20T13:29:10.659Z,33.73
2018-07-20T13:30:20.829Z,34.03
2018-07-20T13:31:30.930Z,34.03
2018-07-20T13:32:41.027Z,34.21
2018-07-20T13:33:51.096Z,34.45
2018-07-20T13:35:01.157Z,34.72
2018-07-20T13:36:10.972Z,34.94
2018-07-20T13:37:21.060Z,35.15
2018-07-20T13:38:30.892Z,35.28
2018-07-20T13:39:41.025Z,35.33
2018-07-20T13:40:51.225Z,35.39
2018-07-20T13:42:01.075Z,35.23
2018-07-20T13:43:11.142Z,35.26
2018-07-20T13:44:20.990Z,35.12
2018-07-20T13:45:31.295Z,35.16
2018-07-20T13:46:41.390Z,34.94
2018-07-20T13:47:51.488Z,34.72
2018-07-20T13:49:01.568Z,34.4
2018-07-20T13:50:11.383Z,34.26
2018-07-20T13:51:21.465Z,34.14
2018-07-20T13:52:31.321Z,34
2018-07-20T13:53:41.659Z,33.84
2018-07-20T13:54:51.751Z,33.75
2018-07-20T13:56:01.592Z,33.62
2018-07-20T13:57:11.414Z,33.53
2018-07-20T13:58:21.263Z,33.52
2018-07-20T13:59:31.485Z,33.34
2018-07-20T14:00:41.609Z,33.37
2018-07-20T14:01:51.177Z,33.32
2018-07-20T14:03:01.332Z,33.24
2018-07-20T14:04:11.159Z,33.12
2018-07-20T14:05:20.972Z,33.23
2018-07-20T14:06:31.071Z,33.28
2018-07-20T14:07:40.639Z,33.58
2018-07-20T14:08:50.744Z,33.75
2018-07-20T14:10:00.833Z,33.92
2018-07-20T14:11:10.700Z,33.9
2018-07-20T14:12:20.828Z,33.89
2018-07-20T14:13:30.954Z,34.02
2018-07-20T14:14:41.049Z,34.21
2018-07-20T14:15:50.875Z,34.3
2018-07-20T14:17:00.712Z,34.15
2018-07-20T14:18:11.077Z,34.06
2018-07-20T14:19:21.184Z,34.3
2018-07-20T14:20:31.273Z,34.45
2018-07-20T14:21:41.364Z,34.74
2018-07-20T14:22:51.439Z,35.02
2018-07-20T14:24:01.539Z,35.21
2018-07-20T14:25:11.651Z,35.39
2018-07-20T14:26:22.002Z,35.52
2018-07-20T14:27:32.279Z,35.58
2018-07-20T14:28:42.366Z,35.53
2018-07-20T14:29:52.472Z,35.55
2018-07-20T14:31:02.563Z,35.53
2018-07-20T14:32:12.644Z,35.5
2018-07-20T14:33:22.927Z,35.55
2018-07-20T14:34:33.147Z,35.49
2018-07-20T14:35:42.976Z,35.49
2018-07-20T14:36:53.059Z,35.49
2018-07-20T14:38:02.941Z,35.23
2018-07-20T14:41:53.483Z,35.23
2018-07-20T14:43:03.428Z,35.01
2018-07-20T14:44:13.702Z,34.83
2018-07-20T14:45:23.533Z,34.66
2018-07-20T14:46:33.375Z,34.43
2018-07-20T14:47:43.525Z,34.32
2018-07-20T14:48:53.363Z,34.18
2018-07-20T14:50:03.694Z,34.1
2018-07-20T14:51:14.016Z,34.05
2018-07-20T14:52:23.986Z,34.36
2018-07-20T14:53:34.167Z,34.45
2018-07-20T14:54:44.009Z,34.64
2018-07-20T14:55:54.175Z,34.78
2018-07-20T14:57:04.262Z,34.78
2018-07-20T14:58:14.358Z,34.86
2018-07-20T14:59:24.445Z,35.02
2018-07-20T15:00:34.260Z,35.11
2018-07-20T15:01:44.193Z,35.11
2018-07-20T15:02:54.496Z,35.13
2018-07-20T15:04:04.593Z,35.13
2018-07-20T15:05:14.683Z,35.2
2018-07-20T15:06:24.768Z,35.15
2018-07-20T15:07:34.586Z,35.21
2018-07-20T15:08:45.005Z,35.12
2018-07-20T15:09:54.842Z,35.15
2018-07-20T15:11:05.004Z,35.15
2018-07-20T15:12:15.188Z,35.21
2018-07-20T15:13:25.432Z,35.23
2018-07-20T15:14:35.271Z,35.18
2018-07-20T15:15:45.092Z,35.24
2018-07-20T15:16:55.182Z,35.15
2018-07-20T15:18:05.436Z,35.13
2018-07-20T15:19:15.666Z,35.23
2018-07-20T15:20:25.781Z,35.27
2018-07-20T15:21:35.875Z,35.23
2018-07-20T15:22:45.718Z,35.18
2018-07-20T15:23:55.530Z,35.28
2018-07-20T15:25:05.643Z,35.18
2018-07-20T15:26:15.760Z,35.3
2018-07-20T15:27:25.836Z,35.27
2018-07-20T15:28:35.968Z,35.24
2018-07-20T15:29:46.253Z,35.28
2018-07-20T15:30:56.338Z,35.13
2018-07-20T15:32:06.429Z,35.16
2018-07-20T15:33:16.260Z,35.09
2018-07-20T15:34:26.478Z,35.11
2018-07-20T15:35:36.566Z,34.91
2018-07-20T15:36:46.671Z,35.01
2018-07-20T15:37:57.630Z,34.87
2018-07-20T15:39:07.736Z,34.91